sensor_id;sensor_type;location;lat;lon;timestamp;P1;durP1;ratioP1;P2;durP2;ratioP2
65271;SDS011;51868;48.812;8.198;2022-12-15T00:02:00;31.52;;;15.20;;
65271;SDS011;51868;48.812;8.198;2022-12-15T00:04:47;28.98;;;15.52;;
65271;SDS011;51868;48.812;8.198;2022-12-15T00:07:33;30.10;;;15.18;;
65271;SDS011;51868;48.812;8.198;2022-12-15T00:10:18;32.78;;;15.13;;
65271;SDS011;51868;48.812;8.198;2022-12-15T00:13:08;32.67;;;16.60;;
65271;SDS011;51868;48.812;8.198;2022-12-15T00:15:54;31.77;;;15.80;;
65271;SDS011;51868;48.812;8.198;2022-12-15T00:18:40;37.50;;;17.00;;
65271;SDS011;51868;48.812;8.198;2022-12-15T00:21:26;31.98;;;17.23;;
65271;SDS011;51868;48.812;8.198;2022-12-15T00:24:12;35.80;;;17.85;;
65271;SDS011;51868;48.812;8.198;2022-12-15T00:26:57;32.65;;;16.45;;
65271;SDS011;51868;48.812;8.198;2022-12-15T00:29:42;35.00;;;18.40;;
65271;SDS011;51868;48.812;8.198;2022-12-15T00:32:28;33.92;;;17.58;;
65271;SDS011;51868;48.812;8.198;2022-12-15T00:35:13;36.80;;;17.48;;
65271;SDS011;51868;48.812;8.198;2022-12-15T00:38:06;34.00;;;17.40;;
65271;SDS011;51868;48.812;8.198;2022-12-15T00:40:52;33.17;;;18.00;;
65271;SDS011;51868;48.812;8.198;2022-12-15T00:43:24;37.15;;;17.45;;
65271;SDS011;51868;48.812;8.198;2022-12-15T00:45:55;37.65;;;17.02;;
65271;SDS011;51868;48.812;8.198;2022-12-15T00:48:41;35.92;;;17.73;;
65271;SDS011;51868;48.812;8.198;2022-12-15T00:51:09;34.08;;;18.10;;
65271;SDS011;51868;48.812;8.198;2022-12-15T00:53:38;36.50;;;18.52;;
65271;SDS011;51868;48.812;8.198;2022-12-15T00:56:24;36.55;;;17.92;;
65271;SDS011;51868;48.812;8.198;2022-12-15T00:59:09;33.58;;;16.27;;
65271;SDS011;51868;48.812;8.198;2022-12-15T01:01:55;37.40;;;18.08;;
65271;SDS011;51868;48.812;8.198;2022-12-15T01:04:40;38.15;;;18.65;;
65271;SDS011;51868;48.812;8.198;2022-12-15T01:07:25;38.08;;;18.65;;
65271;SDS011;51868;48.812;8.198;2022-12-15T01:10:16;37.78;;;19.30;;
65271;SDS011;51868;48.812;8.198;2022-12-15T01:13:02;40.13;;;19.15;;
65271;SDS011;51868;48.812;8.198;2022-12-15T01:15:48;32.92;;;18.50;;
65271;SDS011;51868;48.812;8.198;2022-12-15T01:18:33;36.42;;;18.67;;
65271;SDS011;51868;48.812;8.198;2022-12-15T01:21:19;38.05;;;19.33;;
65271;SDS011;51868;48.812;8.198;2022-12-15T01:23:50;40.05;;;18.90;;
65271;SDS011;51868;48.812;8.198;2022-12-15T01:26:19;37.03;;;18.15;;
65271;SDS011;51868;48.812;8.198;2022-12-15T01:28:47;39.58;;;20.98;;
65271;SDS011;51868;48.812;8.198;2022-12-15T01:31:14;39.47;;;19.00;;
65271;SDS011;51868;48.812;8.198;2022-12-15T01:33:42;37.85;;;20.13;;
65271;SDS011;51868;48.812;8.198;2022-12-15T01:36:10;38.58;;;19.70;;
65271;SDS011;51868;48.812;8.198;2022-12-15T01:38:38;38.10;;;19.23;;
65271;SDS011;51868;48.812;8.198;2022-12-15T01:41:06;41.72;;;19.50;;
65271;SDS011;51868;48.812;8.198;2022-12-15T01:43:37;41.78;;;18.75;;
65271;SDS011;51868;48.812;8.198;2022-12-15T01:46:07;38.05;;;18.13;;
65271;SDS011;51868;48.812;8.198;2022-12-15T01:48:40;41.65;;;19.65;;
65271;SDS011;51868;48.812;8.198;2022-12-15T01:51:15;37.20;;;19.27;;
65271;SDS011;51868;48.812;8.198;2022-12-15T01:53:47;42.13;;;19.58;;
65271;SDS011;51868;48.812;8.198;2022-12-15T01:56:20;37.92;;;19.15;;
65271;SDS011;51868;48.812;8.198;2022-12-15T01:58:51;39.88;;;18.33;;
65271;SDS011;51868;48.812;8.198;2022-12-15T02:01:21;42.53;;;19.42;;
65271;SDS011;51868;48.812;8.198;2022-12-15T02:03:49;37.05;;;18.15;;
65271;SDS011;51868;48.812;8.198;2022-12-15T02:06:19;37.35;;;18.95;;
65271;SDS011;51868;48.812;8.198;2022-12-15T02:08:48;38.65;;;19.08;;
65271;SDS011;51868;48.812;8.198;2022-12-15T02:11:23;42.80;;;19.55;;
65271;SDS011;51868;48.812;8.198;2022-12-15T02:14:04;42.03;;;19.75;;
65271;SDS011;51868;48.812;8.198;2022-12-15T02:16:37;37.30;;;19.45;;
65271;SDS011;51868;48.812;8.198;2022-12-15T02:22:16;40.13;;;18.98;;
65271;SDS011;51868;48.812;8.198;2022-12-15T02:25:02;36.60;;;19.00;;
65271;SDS011;51868;48.812;8.198;2022-12-15T02:27:46;39.17;;;19.00;;
65271;SDS011;51868;48.812;8.198;2022-12-15T02:30:22;38.25;;;19.17;;
65271;SDS011;51868;48.812;8.198;2022-12-15T02:33:00;38.38;;;18.95;;
65271;SDS011;51868;48.812;8.198;2022-12-15T02:35:36;40.17;;;18.75;;
65271;SDS011;51868;48.812;8.198;2022-12-15T02:38:12;34.90;;;17.83;;
65271;SDS011;51868;48.812;8.198;2022-12-15T02:40:39;45.05;;;19.98;;
65271;SDS011;51868;48.812;8.198;2022-12-15T02:43:07;44.28;;;20.48;;
65271;SDS011;51868;48.812;8.198;2022-12-15T02:45:40;36.88;;;17.67;;
65271;SDS011;51868;48.812;8.198;2022-12-15T02:48:19;37.22;;;17.80;;
65271;SDS011;51868;48.812;8.198;2022-12-15T02:50:59;42.03;;;18.45;;
65271;SDS011;51868;48.812;8.198;2022-12-15T02:53:45;39.08;;;19.10;;
65271;SDS011;51868;48.812;8.198;2022-12-15T02:56:24;37.22;;;17.90;;
65271;SDS011;51868;48.812;8.198;2022-12-15T02:59:02;42.70;;;19.02;;
65271;SDS011;51868;48.812;8.198;2022-12-15T03:01:38;37.33;;;18.50;;
65271;SDS011;51868;48.812;8.198;2022-12-15T03:04:09;36.25;;;18.80;;
65271;SDS011;51868;48.812;8.198;2022-12-15T03:06:38;37.63;;;18.55;;
65271;SDS011;51868;48.812;8.198;2022-12-15T03:09:06;35.50;;;17.60;;
65271;SDS011;51868;48.812;8.198;2022-12-15T03:11:34;36.55;;;18.27;;
65271;SDS011;51868;48.812;8.198;2022-12-15T03:14:02;37.85;;;18.67;;
65271;SDS011;51868;48.812;8.198;2022-12-15T03:16:30;36.97;;;19.00;;
65271;SDS011;51868;48.812;8.198;2022-12-15T03:18:59;38.13;;;19.90;;
65271;SDS011;51868;48.812;8.198;2022-12-15T03:21:27;41.65;;;19.85;;
65271;SDS011;51868;48.812;8.198;2022-12-15T03:23:54;39.70;;;20.15;;
65271;SDS011;51868;48.812;8.198;2022-12-15T03:26:22;39.13;;;17.50;;
65271;SDS011;51868;48.812;8.198;2022-12-15T03:28:53;36.92;;;17.73;;
65271;SDS011;51868;48.812;8.198;2022-12-15T03:31:20;34.85;;;18.38;;
65271;SDS011;51868;48.812;8.198;2022-12-15T03:33:48;37.42;;;18.42;;
65271;SDS011;51868;48.812;8.198;2022-12-15T03:36:17;35.38;;;18.30;;
65271;SDS011;51868;48.812;8.198;2022-12-15T03:38:45;36.85;;;18.45;;
65271;SDS011;51868;48.812;8.198;2022-12-15T03:41:12;36.25;;;17.77;;
65271;SDS011;51868;48.812;8.198;2022-12-15T03:43:43;35.03;;;17.98;;
65271;SDS011;51868;48.812;8.198;2022-12-15T03:46:15;39.90;;;19.23;;
65271;SDS011;51868;48.812;8.198;2022-12-15T03:48:43;39.35;;;19.77;;
65271;SDS011;51868;48.812;8.198;2022-12-15T03:51:11;38.72;;;19.00;;
65271;SDS011;51868;48.812;8.198;2022-12-15T03:53:41;35.92;;;18.40;;
65271;SDS011;51868;48.812;8.198;2022-12-15T03:56:09;38.03;;;18.70;;
65271;SDS011;51868;48.812;8.198;2022-12-15T03:58:36;36.42;;;17.25;;
65271;SDS011;51868;48.812;8.198;2022-12-15T04:01:10;36.65;;;18.08;;
65271;SDS011;51868;48.812;8.198;2022-12-15T04:03:45;39.45;;;17.63;;
65271;SDS011;51868;48.812;8.198;2022-12-15T04:06:13;34.60;;;17.30;;
65271;SDS011;51868;48.812;8.198;2022-12-15T04:08:43;35.55;;;18.35;;
65271;SDS011;51868;48.812;8.198;2022-12-15T04:11:15;37.60;;;18.50;;
65271;SDS011;51868;48.812;8.198;2022-12-15T04:13:43;40.42;;;18.33;;
65271;SDS011;51868;48.812;8.198;2022-12-15T04:16:11;36.92;;;19.45;;
65271;SDS011;51868;48.812;8.198;2022-12-15T04:18:45;36.63;;;17.80;;
65271;SDS011;51868;48.812;8.198;2022-12-15T04:21:33;37.80;;;18.70;;
65271;SDS011;51868;48.812;8.198;2022-12-15T04:24:01;38.08;;;18.17;;
65271;SDS011;51868;48.812;8.198;2022-12-15T04:26:46;36.53;;;17.27;;
65271;SDS011;51868;48.812;8.198;2022-12-15T04:29:32;40.80;;;17.88;;
65271;SDS011;51868;48.812;8.198;2022-12-15T04:32:17;36.42;;;18.85;;
65271;SDS011;51868;48.812;8.198;2022-12-15T04:35:02;39.33;;;18.30;;
65271;SDS011;51868;48.812;8.198;2022-12-15T04:37:48;37.08;;;18.98;;
65271;SDS011;51868;48.812;8.198;2022-12-15T04:40:35;38.60;;;18.83;;
65271;SDS011;51868;48.812;8.198;2022-12-15T04:43:20;50.80;;;23.67;;
65271;SDS011;51868;48.812;8.198;2022-12-15T04:46:05;44.60;;;21.67;;
65271;SDS011;51868;48.812;8.198;2022-12-15T04:48:51;40.22;;;19.17;;
65271;SDS011;51868;48.812;8.198;2022-12-15T04:51:36;40.10;;;19.27;;
65271;SDS011;51868;48.812;8.198;2022-12-15T04:54:21;36.58;;;18.63;;
65271;SDS011;51868;48.812;8.198;2022-12-15T04:57:08;36.70;;;18.70;;
65271;SDS011;51868;48.812;8.198;2022-12-15T05:00:07;37.65;;;16.67;;
65271;SDS011;51868;48.812;8.198;2022-12-15T05:02:54;40.50;;;18.65;;
65271;SDS011;51868;48.812;8.198;2022-12-15T05:05:43;36.80;;;18.35;;
65271;SDS011;51868;48.812;8.198;2022-12-15T05:08:29;42.30;;;18.42;;
65271;SDS011;51868;48.812;8.198;2022-12-15T05:11:15;36.50;;;19.15;;
65271;SDS011;51868;48.812;8.198;2022-12-15T05:14:02;36.80;;;18.45;;
65271;SDS011;51868;48.812;8.198;2022-12-15T05:16:47;37.00;;;19.25;;
65271;SDS011;51868;48.812;8.198;2022-12-15T05:19:33;40.90;;;20.05;;
65271;SDS011;51868;48.812;8.198;2022-12-15T05:22:18;37.03;;;17.90;;
65271;SDS011;51868;48.812;8.198;2022-12-15T05:25:03;40.33;;;19.85;;
65271;SDS011;51868;48.812;8.198;2022-12-15T05:27:49;31.08;;;17.08;;
65271;SDS011;51868;48.812;8.198;2022-12-15T05:30:36;38.60;;;19.50;;
65271;SDS011;51868;48.812;8.198;2022-12-15T05:33:21;38.15;;;17.98;;
65271;SDS011;51868;48.812;8.198;2022-12-15T05:35:49;41.10;;;19.13;;
65271;SDS011;51868;48.812;8.198;2022-12-15T05:38:16;37.22;;;17.02;;
65271;SDS011;51868;48.812;8.198;2022-12-15T05:40:44;36.38;;;19.23;;
65271;SDS011;51868;48.812;8.198;2022-12-15T05:43:12;35.92;;;18.70;;
65271;SDS011;51868;48.812;8.198;2022-12-15T05:45:41;42.20;;;17.85;;
65271;SDS011;51868;48.812;8.198;2022-12-15T05:48:09;36.85;;;17.45;;
65271;SDS011;51868;48.812;8.198;2022-12-15T05:50:37;35.92;;;16.95;;
65271;SDS011;51868;48.812;8.198;2022-12-15T05:53:05;39.00;;;18.70;;
65271;SDS011;51868;48.812;8.198;2022-12-15T05:55:35;37.78;;;18.55;;
65271;SDS011;51868;48.812;8.198;2022-12-15T05:58:03;35.83;;;18.45;;
65271;SDS011;51868;48.812;8.198;2022-12-15T06:00:31;38.50;;;18.70;;
65271;SDS011;51868;48.812;8.198;2022-12-15T06:03:00;42.22;;;19.38;;
65271;SDS011;51868;48.812;8.198;2022-12-15T06:05:28;46.00;;;18.95;;
65271;SDS011;51868;48.812;8.198;2022-12-15T06:07:56;37.15;;;18.17;;
65271;SDS011;51868;48.812;8.198;2022-12-15T06:10:26;36.88;;;18.40;;
65271;SDS011;51868;48.812;8.198;2022-12-15T06:12:54;38.63;;;18.02;;
65271;SDS011;51868;48.812;8.198;2022-12-15T06:15:21;39.42;;;18.08;;
65271;SDS011;51868;48.812;8.198;2022-12-15T06:17:49;38.80;;;18.27;;
65271;SDS011;51868;48.812;8.198;2022-12-15T06:20:22;40.50;;;18.42;;
65271;SDS011;51868;48.812;8.198;2022-12-15T06:22:50;40.28;;;19.08;;
65271;SDS011;51868;48.812;8.198;2022-12-15T06:25:18;42.22;;;19.63;;
65271;SDS011;51868;48.812;8.198;2022-12-15T06:27:45;36.03;;;18.02;;
65271;SDS011;51868;48.812;8.198;2022-12-15T06:30:13;42.75;;;20.50;;
65271;SDS011;51868;48.812;8.198;2022-12-15T06:32:42;36.25;;;18.42;;
65271;SDS011;51868;48.812;8.198;2022-12-15T06:35:11;42.25;;;19.48;;
65271;SDS011;51868;48.812;8.198;2022-12-15T06:37:50;38.83;;;17.90;;
65271;SDS011;51868;48.812;8.198;2022-12-15T06:40:18;44.40;;;19.88;;
65271;SDS011;51868;48.812;8.198;2022-12-15T06:42:45;39.03;;;17.50;;
65271;SDS011;51868;48.812;8.198;2022-12-15T06:45:15;38.20;;;16.58;;
65271;SDS011;51868;48.812;8.198;2022-12-15T06:47:43;40.30;;;19.55;;
65271;SDS011;51868;48.812;8.198;2022-12-15T06:50:11;39.67;;;19.05;;
65271;SDS011;51868;48.812;8.198;2022-12-15T06:52:39;45.28;;;18.38;;
65271;SDS011;51868;48.812;8.198;2022-12-15T06:55:08;39.05;;;18.52;;
65271;SDS011;51868;48.812;8.198;2022-12-15T06:57:36;38.13;;;18.48;;
65271;SDS011;51868;48.812;8.198;2022-12-15T07:00:10;41.00;;;19.98;;
65271;SDS011;51868;48.812;8.198;2022-12-15T07:02:40;45.10;;;21.00;;
65271;SDS011;51868;48.812;8.198;2022-12-15T07:05:17;46.80;;;19.48;;
65271;SDS011;51868;48.812;8.198;2022-12-15T07:07:45;45.40;;;20.48;;
65271;SDS011;51868;48.812;8.198;2022-12-15T07:10:16;41.70;;;18.88;;
65271;SDS011;51868;48.812;8.198;2022-12-15T07:12:45;41.22;;;19.48;;
65271;SDS011;51868;48.812;8.198;2022-12-15T07:15:16;42.38;;;19.55;;
65271;SDS011;51868;48.812;8.198;2022-12-15T07:17:44;48.58;;;19.92;;
65271;SDS011;51868;48.812;8.198;2022-12-15T07:20:12;41.92;;;19.83;;
65271;SDS011;51868;48.812;8.198;2022-12-15T07:22:43;43.88;;;18.77;;
65271;SDS011;51868;48.812;8.198;2022-12-15T07:25:17;38.85;;;18.92;;
65271;SDS011;51868;48.812;8.198;2022-12-15T07:27:50;44.50;;;20.20;;
65271;SDS011;51868;48.812;8.198;2022-12-15T07:30:18;44.63;;;20.08;;
65271;SDS011;51868;48.812;8.198;2022-12-15T07:32:46;41.75;;;18.92;;
65271;SDS011;51868;48.812;8.198;2022-12-15T07:35:15;46.42;;;20.08;;
65271;SDS011;51868;48.812;8.198;2022-12-15T07:37:45;41.47;;;18.83;;
65271;SDS011;51868;48.812;8.198;2022-12-15T07:40:13;38.30;;;18.80;;
65271;SDS011;51868;48.812;8.198;2022-12-15T07:42:44;52.25;;;20.08;;
65271;SDS011;51868;48.812;8.198;2022-12-15T07:45:12;47.35;;;19.73;;
65271;SDS011;51868;48.812;8.198;2022-12-15T07:47:40;52.05;;;19.67;;
65271;SDS011;51868;48.812;8.198;2022-12-15T07:50:08;42.78;;;19.77;;
65271;SDS011;51868;48.812;8.198;2022-12-15T07:52:36;51.35;;;21.75;;
65271;SDS011;51868;48.812;8.198;2022-12-15T07:55:04;43.25;;;21.80;;
65271;SDS011;51868;48.812;8.198;2022-12-15T07:57:33;44.95;;;20.88;;
65271;SDS011;51868;48.812;8.198;2022-12-15T08:00:03;42.78;;;19.50;;
65271;SDS011;51868;48.812;8.198;2022-12-15T08:02:31;47.72;;;19.88;;
65271;SDS011;51868;48.812;8.198;2022-12-15T08:05:00;42.25;;;20.10;;
65271;SDS011;51868;48.812;8.198;2022-12-15T08:07:27;43.85;;;20.35;;
65271;SDS011;51868;48.812;8.198;2022-12-15T08:09:55;42.17;;;19.88;;
65271;SDS011;51868;48.812;8.198;2022-12-15T08:12:26;40.38;;;19.73;;
65271;SDS011;51868;48.812;8.198;2022-12-15T08:14:54;42.33;;;19.42;;
65271;SDS011;51868;48.812;8.198;2022-12-15T08:17:24;42.42;;;18.83;;
65271;SDS011;51868;48.812;8.198;2022-12-15T08:19:52;44.58;;;19.77;;
65271;SDS011;51868;48.812;8.198;2022-12-15T08:22:24;45.22;;;20.08;;
65271;SDS011;51868;48.812;8.198;2022-12-15T08:24:53;45.33;;;20.67;;
65271;SDS011;51868;48.812;8.198;2022-12-15T08:27:22;38.97;;;18.75;;
65271;SDS011;51868;48.812;8.198;2022-12-15T08:29:52;49.45;;;20.95;;
65271;SDS011;51868;48.812;8.198;2022-12-15T08:32:20;39.85;;;19.92;;
65271;SDS011;51868;48.812;8.198;2022-12-15T08:34:50;43.50;;;19.17;;
65271;SDS011;51868;48.812;8.198;2022-12-15T08:37:17;44.90;;;20.50;;
65271;SDS011;51868;48.812;8.198;2022-12-15T08:39:47;38.38;;;19.63;;
65271;SDS011;51868;48.812;8.198;2022-12-15T08:42:18;42.42;;;19.02;;
65271;SDS011;51868;48.812;8.198;2022-12-15T08:44:47;50.08;;;21.50;;
65271;SDS011;51868;48.812;8.198;2022-12-15T08:47:15;45.17;;;20.98;;
65271;SDS011;51868;48.812;8.198;2022-12-15T08:49:43;46.35;;;20.80;;
65271;SDS011;51868;48.812;8.198;2022-12-15T08:52:12;44.75;;;21.35;;
65271;SDS011;51868;48.812;8.198;2022-12-15T08:54:47;39.60;;;19.33;;
65271;SDS011;51868;48.812;8.198;2022-12-15T08:57:15;45.03;;;20.30;;
65271;SDS011;51868;48.812;8.198;2022-12-15T08:59:43;40.03;;;20.08;;
65271;SDS011;51868;48.812;8.198;2022-12-15T09:02:25;42.92;;;20.83;;
65271;SDS011;51868;48.812;8.198;2022-12-15T09:05:11;40.30;;;20.33;;
65271;SDS011;51868;48.812;8.198;2022-12-15T09:07:40;42.83;;;20.05;;
65271;SDS011;51868;48.812;8.198;2022-12-15T09:10:08;43.30;;;21.58;;
65271;SDS011;51868;48.812;8.198;2022-12-15T09:12:36;40.30;;;20.10;;
65271;SDS011;51868;48.812;8.198;2022-12-15T09:15:04;47.60;;;21.05;;
65271;SDS011;51868;48.812;8.198;2022-12-15T09:17:32;45.88;;;20.15;;
65271;SDS011;51868;48.812;8.198;2022-12-15T09:20:00;44.08;;;20.40;;
65271;SDS011;51868;48.812;8.198;2022-12-15T09:22:30;44.30;;;21.15;;
65271;SDS011;51868;48.812;8.198;2022-12-15T09:24:59;41.42;;;20.02;;
65271;SDS011;51868;48.812;8.198;2022-12-15T09:27:29;41.03;;;20.33;;
65271;SDS011;51868;48.812;8.198;2022-12-15T09:29:57;45.42;;;20.63;;
65271;SDS011;51868;48.812;8.198;2022-12-15T09:32:26;48.22;;;22.15;;
65271;SDS011;51868;48.812;8.198;2022-12-15T09:34:54;44.63;;;22.25;;
65271;SDS011;51868;48.812;8.198;2022-12-15T09:37:22;41.33;;;19.90;;
65271;SDS011;51868;48.812;8.198;2022-12-15T09:39:50;43.55;;;21.08;;
65271;SDS011;51868;48.812;8.198;2022-12-15T09:42:24;46.17;;;22.58;;
65271;SDS011;51868;48.812;8.198;2022-12-15T09:44:56;49.63;;;23.38;;
65271;SDS011;51868;48.812;8.198;2022-12-15T09:51:15;43.88;;;22.02;;
65271;SDS011;51868;48.812;8.198;2022-12-15T09:53:45;42.42;;;20.55;;
65271;SDS011;51868;48.812;8.198;2022-12-15T09:56:22;43.83;;;21.35;;
65271;SDS011;51868;48.812;8.198;2022-12-15T09:58:57;42.22;;;20.75;;
65271;SDS011;51868;48.812;8.198;2022-12-15T10:01:33;43.47;;;21.13;;
65271;SDS011;51868;48.812;8.198;2022-12-15T10:04:05;54.63;;;20.50;;
65271;SDS011;51868;48.812;8.198;2022-12-15T10:06:40;50.17;;;22.67;;
65271;SDS011;51868;48.812;8.198;2022-12-15T10:09:16;47.20;;;20.73;;
65271;SDS011;51868;48.812;8.198;2022-12-15T10:11:47;43.25;;;21.55;;
65271;SDS011;51868;48.812;8.198;2022-12-15T10:14:25;51.25;;;22.58;;
65271;SDS011;51868;48.812;8.198;2022-12-15T10:17:01;51.17;;;22.02;;
65271;SDS011;51868;48.812;8.198;2022-12-15T10:19:35;48.58;;;21.27;;
65271;SDS011;51868;48.812;8.198;2022-12-15T10:22:09;49.80;;;22.83;;
65271;SDS011;51868;48.812;8.198;2022-12-15T10:24:41;45.20;;;21.50;;
65271;SDS011;51868;48.812;8.198;2022-12-15T10:27:32;48.95;;;24.40;;
65271;SDS011;51868;48.812;8.198;2022-12-15T10:30:11;46.05;;;21.67;;
65271;SDS011;51868;48.812;8.198;2022-12-15T10:32:43;41.03;;;21.00;;
65271;SDS011;51868;48.812;8.198;2022-12-15T10:35:17;45.13;;;22.10;;
65271;SDS011;51868;48.812;8.198;2022-12-15T10:37:48;46.75;;;22.50;;
65271;SDS011;51868;48.812;8.198;2022-12-15T10:40:17;48.53;;;23.25;;
65271;SDS011;51868;48.812;8.198;2022-12-15T10:42:48;47.15;;;23.23;;
65271;SDS011;51868;48.812;8.198;2022-12-15T10:45:31;50.53;;;24.55;;
65271;SDS011;51868;48.812;8.198;2022-12-15T10:48:02;45.88;;;22.60;;
65271;SDS011;51868;48.812;8.198;2022-12-15T10:50:44;48.60;;;22.73;;
65271;SDS011;51868;48.812;8.198;2022-12-15T10:56:05;43.72;;;22.35;;
65271;SDS011;51868;48.812;8.198;2022-12-15T10:58:44;48.03;;;22.92;;
65271;SDS011;51868;48.812;8.198;2022-12-15T11:01:17;44.85;;;21.73;;
65271;SDS011;51868;48.812;8.198;2022-12-15T11:03:57;45.33;;;21.77;;
65271;SDS011;51868;48.812;8.198;2022-12-15T11:06:28;42.95;;;22.20;;
65271;SDS011;51868;48.812;8.198;2022-12-15T11:09:19;46.22;;;21.95;;
65271;SDS011;51868;48.812;8.198;2022-12-15T11:11:56;45.67;;;22.65;;
65271;SDS011;51868;48.812;8.198;2022-12-15T11:14:42;42.83;;;21.73;;
65271;SDS011;51868;48.812;8.198;2022-12-15T11:17:22;52.15;;;24.08;;
65271;SDS011;51868;48.812;8.198;2022-12-15T11:19:55;52.88;;;24.17;;
65271;SDS011;51868;48.812;8.198;2022-12-15T11:22:52;43.70;;;20.48;;
65271;SDS011;51868;48.812;8.198;2022-12-15T11:27:56;51.03;;;21.58;;
65271;SDS011;51868;48.812;8.198;2022-12-15T11:30:30;47.92;;;24.05;;
65271;SDS011;51868;48.812;8.198;2022-12-15T11:33:14;49.78;;;21.92;;
65271;SDS011;51868;48.812;8.198;2022-12-15T11:35:49;47.25;;;20.35;;
65271;SDS011;51868;48.812;8.198;2022-12-15T11:38:26;47.17;;;22.00;;
65271;SDS011;51868;48.812;8.198;2022-12-15T11:41:00;47.17;;;21.45;;
65271;SDS011;51868;48.812;8.198;2022-12-15T11:43:50;46.55;;;21.77;;
65271;SDS011;51868;48.812;8.198;2022-12-15T11:46:34;48.00;;;21.38;;
65271;SDS011;51868;48.812;8.198;2022-12-15T11:49:16;52.28;;;25.00;;
65271;SDS011;51868;48.812;8.198;2022-12-15T11:52:05;48.38;;;22.75;;
65271;SDS011;51868;48.812;8.198;2022-12-15T11:54:40;43.40;;;22.45;;
65271;SDS011;51868;48.812;8.198;2022-12-15T11:57:22;47.08;;;22.35;;
65271;SDS011;51868;48.812;8.198;2022-12-15T12:00:11;48.17;;;22.98;;
65271;SDS011;51868;48.812;8.198;2022-12-15T12:02:44;55.95;;;24.77;;
65271;SDS011;51868;48.812;8.198;2022-12-15T12:05:28;44.60;;;21.92;;
65271;SDS011;51868;48.812;8.198;2022-12-15T12:08:08;54.72;;;22.98;;
65271;SDS011;51868;48.812;8.198;2022-12-15T12:10:51;55.10;;;22.92;;
65271;SDS011;51868;48.812;8.198;2022-12-15T12:13:27;52.72;;;22.50;;
65271;SDS011;51868;48.812;8.198;2022-12-15T12:16:09;52.03;;;24.38;;
65271;SDS011;51868;48.812;8.198;2022-12-15T12:18:45;52.08;;;22.98;;
65271;SDS011;51868;48.812;8.198;2022-12-15T12:21:23;48.30;;;24.33;;
65271;SDS011;51868;48.812;8.198;2022-12-15T12:23:55;47.42;;;22.63;;
65271;SDS011;51868;48.812;8.198;2022-12-15T12:26:31;48.30;;;22.27;;
65271;SDS011;51868;48.812;8.198;2022-12-15T12:29:05;45.67;;;21.48;;
65271;SDS011;51868;48.812;8.198;2022-12-15T12:31:41;50.38;;;23.52;;
65271;SDS011;51868;48.812;8.198;2022-12-15T12:34:17;49.67;;;23.23;;
65271;SDS011;51868;48.812;8.198;2022-12-15T12:36:50;43.72;;;21.83;;
65271;SDS011;51868;48.812;8.198;2022-12-15T12:39:21;42.50;;;21.27;;
65271;SDS011;51868;48.812;8.198;2022-12-15T12:41:58;41.72;;;20.27;;
65271;SDS011;51868;48.812;8.198;2022-12-15T12:44:32;41.90;;;20.95;;
65271;SDS011;51868;48.812;8.198;2022-12-15T12:47:05;44.90;;;22.08;;
65271;SDS011;51868;48.812;8.198;2022-12-15T12:49:39;45.17;;;21.85;;
65271;SDS011;51868;48.812;8.198;2022-12-15T12:52:16;55.60;;;26.00;;
65271;SDS011;51868;48.812;8.198;2022-12-15T12:54:55;46.97;;;22.85;;
65271;SDS011;51868;48.812;8.198;2022-12-15T12:57:28;46.30;;;21.45;;
65271;SDS011;51868;48.812;8.198;2022-12-15T13:00:03;51.83;;;22.83;;
65271;SDS011;51868;48.812;8.198;2022-12-15T13:02:47;45.10;;;21.70;;
65271;SDS011;51868;48.812;8.198;2022-12-15T13:05:22;48.05;;;22.52;;
65271;SDS011;51868;48.812;8.198;2022-12-15T13:14:49;44.15;;;21.42;;
65271;SDS011;51868;48.812;8.198;2022-12-15T13:17:27;40.20;;;20.20;;
65271;SDS011;51868;48.812;8.198;2022-12-15T13:20:15;43.35;;;20.88;;
65271;SDS011;51868;48.812;8.198;2022-12-15T13:22:46;41.90;;;20.60;;
65271;SDS011;51868;48.812;8.198;2022-12-15T13:25:35;42.63;;;22.20;;
65271;SDS011;51868;48.812;8.198;2022-12-15T13:28:17;49.17;;;21.00;;
65271;SDS011;51868;48.812;8.198;2022-12-15T13:31:13;42.42;;;20.67;;
65271;SDS011;51868;48.812;8.198;2022-12-15T13:33:54;43.63;;;19.70;;
65271;SDS011;51868;48.812;8.198;2022-12-15T13:36:42;42.13;;;21.30;;
65271;SDS011;51868;48.812;8.198;2022-12-15T13:39:31;44.28;;;20.08;;
65271;SDS011;51868;48.812;8.198;2022-12-15T13:45:27;42.42;;;20.63;;
65271;SDS011;51868;48.812;8.198;2022-12-15T13:48:12;44.58;;;22.58;;
65271;SDS011;51868;48.812;8.198;2022-12-15T13:50:46;43.75;;;20.50;;
65271;SDS011;51868;48.812;8.198;2022-12-15T13:53:21;46.17;;;22.70;;
65271;SDS011;51868;48.812;8.198;2022-12-15T13:55:52;40.85;;;20.45;;
65271;SDS011;51868;48.812;8.198;2022-12-15T13:58:25;41.10;;;20.77;;
65271;SDS011;51868;48.812;8.198;2022-12-15T14:00:59;45.65;;;21.38;;
65271;SDS011;51868;48.812;8.198;2022-12-15T14:03:28;42.33;;;21.77;;
65271;SDS011;51868;48.812;8.198;2022-12-15T14:05:58;43.83;;;22.67;;
65271;SDS011;51868;48.812;8.198;2022-12-15T14:08:27;40.78;;;20.98;;
65271;SDS011;51868;48.812;8.198;2022-12-15T14:10:57;45.47;;;20.30;;
65271;SDS011;51868;48.812;8.198;2022-12-15T14:13:41;45.83;;;21.23;;
65271;SDS011;51868;48.812;8.198;2022-12-15T14:16:19;41.95;;;21.73;;
65271;SDS011;51868;48.812;8.198;2022-12-15T14:19:01;47.47;;;22.08;;
65271;SDS011;51868;48.812;8.198;2022-12-15T14:21:31;43.03;;;22.13;;
65271;SDS011;51868;48.812;8.198;2022-12-15T14:24:04;42.53;;;21.55;;
65271;SDS011;51868;48.812;8.198;2022-12-15T14:27:07;44.40;;;20.58;;
65271;SDS011;51868;48.812;8.198;2022-12-15T14:29:37;41.63;;;21.60;;
65271;SDS011;51868;48.812;8.198;2022-12-15T14:32:08;55.20;;;21.80;;
65271;SDS011;51868;48.812;8.198;2022-12-15T14:34:36;42.45;;;22.83;;
65271;SDS011;51868;48.812;8.198;2022-12-15T14:37:07;42.50;;;22.05;;
65271;SDS011;51868;48.812;8.198;2022-12-15T14:39:39;41.45;;;21.45;;
65271;SDS011;51868;48.812;8.198;2022-12-15T14:42:15;42.05;;;21.88;;
65271;SDS011;51868;48.812;8.198;2022-12-15T14:44:46;40.92;;;21.50;;
65271;SDS011;51868;48.812;8.198;2022-12-15T14:47:35;50.28;;;22.98;;
65271;SDS011;51868;48.812;8.198;2022-12-15T14:50:03;47.67;;;22.98;;
65271;SDS011;51868;48.812;8.198;2022-12-15T14:52:37;39.00;;;19.77;;
65271;SDS011;51868;48.812;8.198;2022-12-15T14:55:22;46.45;;;21.60;;
65271;SDS011;51868;48.812;8.198;2022-12-15T14:57:58;44.45;;;21.65;;
65271;SDS011;51868;48.812;8.198;2022-12-15T15:00:27;45.28;;;22.80;;
65271;SDS011;51868;48.812;8.198;2022-12-15T15:03:16;61.90;;;23.85;;
65271;SDS011;51868;48.812;8.198;2022-12-15T15:05:52;51.00;;;23.25;;
65271;SDS011;51868;48.812;8.198;2022-12-15T15:08:25;47.42;;;23.50;;
65271;SDS011;51868;48.812;8.198;2022-12-15T15:10:56;47.13;;;22.85;;
65271;SDS011;51868;48.812;8.198;2022-12-15T15:13:33;47.63;;;21.73;;
65271;SDS011;51868;48.812;8.198;2022-12-15T15:16:06;45.28;;;20.92;;
65271;SDS011;51868;48.812;8.198;2022-12-15T15:18:42;49.17;;;22.73;;
65271;SDS011;51868;48.812;8.198;2022-12-15T15:21:35;56.20;;;23.85;;
65271;SDS011;51868;48.812;8.198;2022-12-15T15:24:15;50.50;;;23.38;;
65271;SDS011;51868;48.812;8.198;2022-12-15T15:26:48;52.70;;;23.55;;
65271;SDS011;51868;48.812;8.198;2022-12-15T15:29:32;50.10;;;23.88;;